createdAt,value
2023-03-31T00:00:53.168Z,7.13
2023-03-31T00:03:24.419Z,8.57
2023-03-31T00:06:01.333Z,6.68
2023-03-31T00:08:35.859Z,6.30
2023-03-31T00:11:05.666Z,7.07
2023-03-31T00:13:33.175Z,6.95
2023-03-31T00:16:02.882Z,6.22
2023-03-31T00:18:30.126Z,6.47
2023-03-31T00:21:25.418Z,6.38
2023-03-31T00:24:01.266Z,8.02
2023-03-31T00:26:29.591Z,7.05
2023-03-31T00:28:57.914Z,5.40
2023-03-31T00:31:25.522Z,6.10
2023-03-31T00:33:52.628Z,5.75
2023-03-31T00:36:27.500Z,6.05
2023-03-31T00:39:00.461Z,6.10
2023-03-31T00:41:29.092Z,6.82
2023-03-31T00:44:08.546Z,6.05
2023-03-31T00:47:13.147Z,6.45
2023-03-31T00:49:49.708Z,6.53
2023-03-31T00:52:27.927Z,6.57
2023-03-31T00:55:02.103Z,6.07
2023-03-31T00:57:33.986Z,7.70
2023-03-31T01:00:16.836Z,7.50
2023-03-31T01:02:53.264Z,6.13
2023-03-31T01:05:45.261Z,5.70
2023-03-31T01:08:13.601Z,6.68
2023-03-31T01:10:46.616Z,7.90
2023-03-31T01:15:43.591Z,6.78
2023-03-31T01:18:13.656Z,6.10
2023-03-31T01:21:03.907Z,7.25
2023-03-31T01:23:51.327Z,6.13
2023-03-31T01:26:56.411Z,6.63
2023-03-31T01:29:42.826Z,6.40
2023-03-31T01:32:24.824Z,6.03
2023-03-31T01:35:04.107Z,6.15
2023-03-31T01:38:09.331Z,6.75
2023-03-31T01:40:52.555Z,6.32
2023-03-31T01:46:06.996Z,9.00
2023-03-31T01:48:57.003Z,5.57
2023-03-31T01:51:34.326Z,4.97
2023-03-31T01:54:17.618Z,5.93
2023-03-31T01:59:40.548Z,5.18
2023-03-31T02:02:17.829Z,6.03
2023-03-31T02:04:59.306Z,4.97
2023-03-31T02:07:50.318Z,4.57
2023-03-31T02:10:18.698Z,4.43
2023-03-31T02:12:46.509Z,4.15
2023-03-31T02:15:19.471Z,3.10
2023-03-31T02:20:18.456Z,4.32
2023-03-31T02:22:50.736Z,4.90
2023-03-31T02:25:21.690Z,3.53
2023-03-31T02:28:12.492Z,3.72
2023-03-31T02:30:52.434Z,6.60
2023-03-31T02:33:19.835Z,3.38
2023-03-31T02:35:47.001Z,4.22
2023-03-31T02:38:14.206Z,4.28
2023-03-31T02:40:41.675Z,6.43
2023-03-31T02:43:08.799Z,3.58
2023-03-31T02:45:46.856Z,5.10
2023-03-31T02:48:37.281Z,4.60
2023-03-31T02:51:35.534Z,5.40
2023-03-31T02:54:21.567Z,5.43
2023-03-31T02:57:07.124Z,5.60
2023-03-31T02:59:40.380Z,5.45
2023-03-31T03:02:34.054Z,5.28
2023-03-31T03:05:06.636Z,4.57
2023-03-31T03:08:03.870Z,4.10
2023-03-31T03:10:36.733Z,6.15
2023-03-31T03:13:47.756Z,4.65
2023-03-31T03:16:44.518Z,5.60
2023-03-31T03:19:19.377Z,6.53
2023-03-31T03:21:47.685Z,6.15
2023-03-31T03:24:18.583Z,6.53
2023-03-31T03:26:46.240Z,6.50
2023-03-31T03:29:14.818Z,5.18
2023-03-31T03:31:44.931Z,6.47
2023-03-31T03:34:12.114Z,6.05
2023-03-31T03:36:39.597Z,5.93
2023-03-31T03:39:08.006Z,4.35
2023-03-31T03:41:35.593Z,7.50
2023-03-31T03:44:02.628Z,6.25
2023-03-31T03:46:29.798Z,6.43
2023-03-31T03:48:57.053Z,7.05
2023-03-31T03:51:24.172Z,5.68
2023-03-31T03:53:51.164Z,6.53
2023-03-31T03:56:18.218Z,4.38
2023-03-31T03:58:45.294Z,5.50
2023-03-31T04:01:12.592Z,4.65
2023-03-31T04:03:41.480Z,5.68
2023-03-31T04:06:13.532Z,4.55
2023-03-31T04:08:57.079Z,5.80
2023-03-31T04:11:24.617Z,4.68
2023-03-31T04:13:51.644Z,8.55
2023-03-31T04:16:18.777Z,6.40
2023-03-31T04:18:45.876Z,3.78
2023-03-31T04:21:15.754Z,6.85
2023-03-31T04:23:47.100Z,8.80
2023-03-31T04:26:26.764Z,7.85
2023-03-31T04:28:54.255Z,4.85
2023-03-31T04:31:44.239Z,7.57
2023-03-31T04:34:16.130Z,5.85
2023-03-31T04:36:48.538Z,7.38
2023-03-31T04:39:30.764Z,7.45
2023-03-31T04:42:01.969Z,8.50
2023-03-31T04:44:29.504Z,7.07
2023-03-31T04:46:56.926Z,7.03
2023-03-31T04:49:23.924Z,6.72
2023-03-31T04:51:51.232Z,6.05
2023-03-31T04:54:18.354Z,6.30
2023-03-31T04:56:45.624Z,5.53
2023-03-31T04:59:12.714Z,6.43
2023-03-31T05:01:39.811Z,6.53
2023-03-31T05:04:06.956Z,11.65
2023-03-31T05:06:34.182Z,8.32
2023-03-31T05:09:01.236Z,9.88
2023-03-31T05:11:29.146Z,13.10
2023-03-31T05:13:56.891Z,7.20
2023-03-31T05:16:23.980Z,6.03
2023-03-31T05:18:51.170Z,6.43
2023-03-31T05:21:20.929Z,5.57
2023-03-31T05:23:48.944Z,6.80
2023-03-31T05:26:16.537Z,5.18
2023-03-31T05:28:44.016Z,5.47
2023-03-31T05:31:13.097Z,7.70
2023-03-31T05:33:42.317Z,7.82
2023-03-31T05:36:11.904Z,5.65
2023-03-31T05:38:39.825Z,7.35
2023-03-31T05:41:09.447Z,8.45
2023-03-31T05:43:38.067Z,9.43
2023-03-31T05:46:06.665Z,9.88
2023-03-31T05:48:34.246Z,6.20
2023-03-31T05:51:02.018Z,8.05
2023-03-31T05:53:29.447Z,8.73
2023-03-31T05:56:02.118Z,6.47
2023-03-31T05:58:29.990Z,8.27
2023-03-31T06:01:12.222Z,6.32
2023-03-31T06:03:43.910Z,12.83
2023-03-31T06:06:13.355Z,8.20
2023-03-31T06:08:41.215Z,8.55
2023-03-31T06:11:09.838Z,9.18
2023-03-31T06:13:37.696Z,6.05
2023-03-31T06:16:05.832Z,7.78
2023-03-31T06:18:34.810Z,7.50
2023-03-31T06:21:01.910Z,8.82
2023-03-31T06:23:29.051Z,9.07
2023-03-31T06:26:04.183Z,10.45
2023-03-31T06:28:31.355Z,12.60
2023-03-31T06:31:13.246Z,6.78
2023-03-31T06:33:41.947Z,11.07
2023-03-31T06:36:10.704Z,10.77
2023-03-31T06:38:38.611Z,11.32
2023-03-31T06:41:07.939Z,13.63
2023-03-31T06:43:35.976Z,9.70
2023-03-31T06:46:03.237Z,14.02
2023-03-31T06:48:30.477Z,10.07
2023-03-31T06:51:00.912Z,10.30
2023-03-31T06:53:28.967Z,10.73
2023-03-31T06:55:56.459Z,15.77
2023-03-31T06:58:24.029Z,13.35
2023-03-31T07:00:51.584Z,8.27
2023-03-31T07:03:29.633Z,19.63
2023-03-31T07:05:57.494Z,12.32
2023-03-31T07:08:25.190Z,14.23
2023-03-31T07:11:00.286Z,12.07
2023-03-31T07:13:28.357Z,18.45
2023-03-31T07:15:55.973Z,13.80
2023-03-31T07:18:26.436Z,7.55
2023-03-31T07:20:53.891Z,11.18
2023-03-31T07:23:20.997Z,12.88
2023-03-31T07:25:49.188Z,11.48
2023-03-31T07:28:16.700Z,13.32
2023-03-31T07:30:44.025Z,13.80
2023-03-31T07:33:11.373Z,15.55
2023-03-31T07:35:42.578Z,12.13
2023-03-31T07:38:11.115Z,11.73
2023-03-31T07:40:39.592Z,14.65
2023-03-31T07:43:07.587Z,7.72
2023-03-31T07:45:35.135Z,14.27
2023-03-31T07:48:02.392Z,12.88
2023-03-31T07:50:29.680Z,12.60
2023-03-31T07:52:56.909Z,13.60
2023-03-31T07:55:24.215Z,11.02
2023-03-31T07:57:51.627Z,15.90
2023-03-31T08:00:19.521Z,12.18
2023-03-31T08:02:46.729Z,13.48
2023-03-31T08:05:16.431Z,13.43
2023-03-31T08:07:46.011Z,15.48
2023-03-31T08:10:22.962Z,12.35
2023-03-31T08:12:50.100Z,12.77
2023-03-31T08:15:17.505Z,13.10
2023-03-31T08:17:44.877Z,10.52
2023-03-31T08:20:12.587Z,16.45
2023-03-31T08:22:40.866Z,10.43
2023-03-31T08:25:08.786Z,16.33
2023-03-31T08:27:37.935Z,13.70
2023-03-31T08:30:06.835Z,10.93
2023-03-31T08:32:35.792Z,12.60
2023-03-31T08:35:03.657Z,12.93
2023-03-31T08:37:31.682Z,17.13
2023-03-31T08:39:58.959Z,11.57
2023-03-31T08:43:05.753Z,15.50
2023-03-31T08:45:41.507Z,12.10
2023-03-31T08:48:17.921Z,13.60
2023-03-31T08:50:51.519Z,12.18
2023-03-31T08:53:29.002Z,13.05
2023-03-31T08:55:58.267Z,13.25
2023-03-31T08:58:50.385Z,10.18
2023-03-31T09:01:54.820Z,12.57
2023-03-31T09:04:43.311Z,11.05
2023-03-31T09:07:39.721Z,10.98
2023-03-31T09:10:33.697Z,10.18
2023-03-31T09:13:00.751Z,12.90
2023-03-31T09:15:46.701Z,15.48
2023-03-31T09:18:19.315Z,12.10
2023-03-31T09:20:50.436Z,15.32
2023-03-31T09:23:40.175Z,15.50
2023-03-31T09:26:22.874Z,15.75
2023-03-31T09:28:51.452Z,13.90
2023-03-31T09:31:21.097Z,11.30
2023-03-31T09:33:48.688Z,14.38
2023-03-31T09:36:18.434Z,19.92
2023-03-31T09:38:47.073Z,14.82
2023-03-31T09:41:16.265Z,16.70
2023-03-31T09:43:46.221Z,15.07
2023-03-31T09:46:39.468Z,14.02
2023-03-31T09:49:20.553Z,10.02
2023-03-31T09:51:56.859Z,15.85
2023-03-31T09:54:29.732Z,11.05
2023-03-31T09:56:56.848Z,10.63
2023-03-31T09:59:34.317Z,12.07
2023-03-31T10:02:21.555Z,8.65
2023-03-31T10:04:48.803Z,13.32
2023-03-31T10:07:23.178Z,12.13
2023-03-31T10:09:50.304Z,10.93
2023-03-31T10:12:24.370Z,12.40
2023-03-31T10:14:53.744Z,12.68
2023-03-31T10:17:22.863Z,13.93
2023-03-31T10:19:53.160Z,13.00
2023-03-31T10:22:23.179Z,13.00
2023-03-31T10:24:52.150Z,12.95
2023-03-31T10:27:29.845Z,10.10
2023-03-31T10:29:58.910Z,10.48
2023-03-31T10:32:42.973Z,8.70
2023-03-31T10:35:24.974Z,11.77
2023-03-31T10:37:56.952Z,9.57
2023-03-31T10:40:29.931Z,7.65
2023-03-31T10:45:51.535Z,12.10
2023-03-31T10:48:27.974Z,11.27
2023-03-31T10:51:06.934Z,13.20
2023-03-31T10:53:43.731Z,11.48
2023-03-31T10:56:41.831Z,11.68
2023-03-31T10:59:23.837Z,12.90
2023-03-31T11:02:15.548Z,9.63
2023-03-31T11:04:48.322Z,12.60
2023-03-31T11:08:12.211Z,12.75
2023-03-31T11:11:03.806Z,18.70
2023-03-31T11:13:41.881Z,13.30
2023-03-31T11:16:11.764Z,7.90
2023-03-31T11:19:07.538Z,10.07
2023-03-31T11:21:57.806Z,8.90
2023-03-31T11:25:02.638Z,7.13
2023-03-31T11:27:41.999Z,8.10
2023-03-31T11:30:27.878Z,9.40
2023-03-31T11:33:13.977Z,12.15
2023-03-31T11:36:05.432Z,14.80
2023-03-31T11:39:09.695Z,12.75
2023-03-31T11:42:04.094Z,11.77
2023-03-31T11:45:04.672Z,13.13
2023-03-31T11:47:38.034Z,11.27
2023-03-31T11:50:12.705Z,11.68
2023-03-31T11:52:45.277Z,14.60
2023-03-31T11:55:19.203Z,11.10
2023-03-31T11:58:10.183Z,13.60
2023-03-31T12:00:54.004Z,16.48
2023-03-31T12:04:01.995Z,13.93
2023-03-31T12:06:35.163Z,12.27
2023-03-31T12:11:45.931Z,12.95
2023-03-31T12:14:35.046Z,15.68
2023-03-31T12:17:26.246Z,9.93
2023-03-31T12:20:02.337Z,17.52
2023-03-31T12:22:35.446Z,14.70
2023-03-31T12:25:03.043Z,17.83
2023-03-31T12:27:30.195Z,15.13
2023-03-31T12:30:11.323Z,15.38
2023-03-31T12:32:42.189Z,14.40
2023-03-31T12:35:35.851Z,12.05
2023-03-31T12:38:05.886Z,12.20
2023-03-31T12:40:38.827Z,12.80
2023-03-31T12:43:33.277Z,11.35
2023-03-31T12:46:18.826Z,12.30
2023-03-31T12:49:06.946Z,13.02
2023-03-31T12:51:57.284Z,16.95
2023-03-31T12:54:36.620Z,15.27
2023-03-31T12:57:12.981Z,11.88
2023-03-31T12:59:42.751Z,14.85
2023-03-31T13:02:09.968Z,14.88
2023-03-31T13:04:38.385Z,13.50
2023-03-31T13:07:27.377Z,14.88
2023-03-31T13:10:00.227Z,12.75
2023-03-31T13:12:31.102Z,13.35
2023-03-31T13:15:01.015Z,13.50
2023-03-31T13:17:33.588Z,13.60
2023-03-31T13:20:37.956Z,17.08
2023-03-31T13:23:25.664Z,15.52
2023-03-31T13:25:57.157Z,14.73
2023-03-31T13:28:40.397Z,16.58
2023-03-31T13:31:12.659Z,14.85
2023-03-31T13:33:42.151Z,17.85
2023-03-31T13:36:15.768Z,15.48
2023-03-31T13:38:48.557Z,14.30
2023-03-31T13:41:46.336Z,19.73
2023-03-31T13:44:38.565Z,18.38
2023-03-31T13:47:27.563Z,15.80
2023-03-31T13:50:00.426Z,13.38
2023-03-31T13:52:48.132Z,14.40
2023-03-31T13:55:24.610Z,14.00
2023-03-31T13:58:34.292Z,14.43
2023-03-31T14:01:29.023Z,15.50
2023-03-31T14:04:06.234Z,15.75
2023-03-31T14:06:52.222Z,17.20
2023-03-31T14:09:34.974Z,16.15
2023-03-31T14:12:19.629Z,12.77
2023-03-31T14:14:46.849Z,13.70
2023-03-31T14:17:14.548Z,16.58
2023-03-31T14:20:12.971Z,16.90
2023-03-31T14:22:45.944Z,16.75
2023-03-31T14:25:27.343Z,16.35
2023-03-31T14:27:58.514Z,19.10
2023-03-31T14:30:59.069Z,17.80
2023-03-31T14:33:36.867Z,16.20
2023-03-31T14:36:39.667Z,16.33
2023-03-31T14:39:11.285Z,17.03
2023-03-31T14:41:38.404Z,17.88
2023-03-31T14:44:07.568Z,17.15
2023-03-31T14:46:38.922Z,16.88
2023-03-31T14:49:19.880Z,20.23
2023-03-31T14:51:47.007Z,19.10
2023-03-31T14:54:20.057Z,19.02
2023-03-31T14:59:27.482Z,15.80
2023-03-31T15:01:56.896Z,16.75
2023-03-31T15:04:39.613Z,15.25
2023-03-31T15:07:09.719Z,13.93
2023-03-31T15:09:37.560Z,13.15
2023-03-31T15:12:11.551Z,13.90
2023-03-31T15:14:46.131Z,11.45
2023-03-31T15:17:23.169Z,13.77
2023-03-31T15:19:58.658Z,11.52
2023-03-31T15:22:28.828Z,11.30
2023-03-31T15:24:56.418Z,13.18
2023-03-31T15:27:39.765Z,12.10
2023-03-31T15:32:40.307Z,11.70
2023-03-31T15:38:04.633Z,11.85
2023-03-31T15:40:39.690Z,14.30
2023-03-31T15:43:25.859Z,14.73
2023-03-31T15:45:55.784Z,13.07
2023-03-31T15:48:34.423Z,14.98
2023-03-31T15:51:43.817Z,12.80
2023-03-31T15:54:46.541Z,13.93
2023-03-31T15:57:19.917Z,15.55
2023-03-31T15:59:56.760Z,13.90
2023-03-31T16:02:27.183Z,16.90
2023-03-31T16:04:58.845Z,14.73
2023-03-31T16:07:30.146Z,12.75
2023-03-31T16:10:16.405Z,13.57
2023-03-31T16:12:52.795Z,13.40
2023-03-31T16:15:28.863Z,14.10
2023-03-31T16:18:00.621Z,14.60
2023-03-31T16:20:32.974Z,13.45
2023-03-31T16:23:00.599Z,12.95
2023-03-31T16:25:31.822Z,15.90
2023-03-31T16:28:02.045Z,17.63
2023-03-31T16:30:42.919Z,14.55
2023-03-31T16:33:12.974Z,13.60
2023-03-31T16:35:56.161Z,14.80
2023-03-31T16:38:25.686Z,14.68
2023-03-31T16:40:55.254Z,15.73
2023-03-31T16:43:28.209Z,14.18
2023-03-31T16:46:00.618Z,16.52
2023-03-31T16:48:30.009Z,11.90
2023-03-31T16:50:58.850Z,15.90
2023-03-31T16:53:28.428Z,14.70
2023-03-31T16:55:56.349Z,14.90
2023-03-31T16:58:24.540Z,14.68
2023-03-31T17:00:52.558Z,18.30
2023-03-31T17:03:20.623Z,17.45
2023-03-31T17:05:55.178Z,17.67
2023-03-31T17:08:26.529Z,16.73
2023-03-31T17:11:05.481Z,14.18
2023-03-31T17:13:33.881Z,18.50
2023-03-31T17:16:16.295Z,16.15
2023-03-31T17:18:46.163Z,18.55
2023-03-31T17:21:15.665Z,17.67
2023-03-31T17:23:42.896Z,16.27
2023-03-31T17:26:12.922Z,19.05
2023-03-31T17:28:40.604Z,19.92
2023-03-31T17:31:19.320Z,16.23
2023-03-31T17:33:47.501Z,17.55
2023-03-31T17:36:15.878Z,17.80
2023-03-31T17:38:43.326Z,16.50
2023-03-31T17:41:12.864Z,19.10
2023-03-31T17:43:40.544Z,18.55
2023-03-31T17:46:13.254Z,18.05
2023-03-31T17:48:41.640Z,17.30
2023-03-31T17:51:13.904Z,16.50
2023-03-31T17:53:45.805Z,18.83
2023-03-31T17:56:13.651Z,18.27
2023-03-31T17:58:41.664Z,16.88
2023-03-31T18:01:10.468Z,16.85
2023-03-31T18:03:38.302Z,15.93
2023-03-31T18:06:08.273Z,17.92
2023-03-31T18:08:36.308Z,18.35
2023-03-31T18:11:05.715Z,15.93
2023-03-31T18:13:34.889Z,17.98
2023-03-31T18:16:02.780Z,17.08
2023-03-31T18:18:30.011Z,17.83
2023-03-31T18:20:57.300Z,16.65
2023-03-31T18:23:24.911Z,18.90
2023-03-31T18:25:52.783Z,18.80
2023-03-31T18:28:21.006Z,18.08
2023-03-31T18:30:48.319Z,18.42
2023-03-31T18:33:15.651Z,20.80
2023-03-31T18:35:43.025Z,16.95
2023-03-31T18:38:10.389Z,19.08
2023-03-31T18:40:38.030Z,19.85
2023-03-31T18:43:06.040Z,18.80
2023-03-31T18:45:33.473Z,20.17
2023-03-31T18:48:00.826Z,18.98
2023-03-31T18:50:28.035Z,20.83
2023-03-31T18:52:55.130Z,20.42
2023-03-31T18:55:23.378Z,21.30
2023-03-31T18:57:50.458Z,20.75
2023-03-31T19:00:20.772Z,21.23
2023-03-31T19:02:48.273Z,22.52
2023-03-31T19:05:15.923Z,20.73
2023-03-31T19:07:43.012Z,19.13
2023-03-31T19:10:10.811Z,19.05
2023-03-31T19:12:38.036Z,17.10
2023-03-31T19:15:06.340Z,15.65
2023-03-31T19:17:33.468Z,18.35
2023-03-31T19:20:00.809Z,16.75
2023-03-31T19:22:29.842Z,17.13
2023-03-31T19:24:56.902Z,17.98
2023-03-31T19:27:24.015Z,15.25
2023-03-31T19:29:51.738Z,16.05
2023-03-31T19:32:18.792Z,17.00
2023-03-31T19:34:46.637Z,16.65
2023-03-31T19:37:13.870Z,17.08
2023-03-31T19:39:40.958Z,17.60
2023-03-31T19:42:07.981Z,18.08
2023-03-31T19:44:35.025Z,17.08
2023-03-31T19:47:02.247Z,16.13
2023-03-31T19:49:29.477Z,18.17
2023-03-31T19:51:56.715Z,17.48
2023-03-31T19:54:24.775Z,16.38
2023-03-31T19:56:52.207Z,23.50
2023-03-31T19:59:19.312Z,16.75
2023-03-31T20:01:46.574Z,17.23
2023-03-31T20:04:17.304Z,16.55
2023-03-31T20:06:45.276Z,16.38
2023-03-31T20:09:13.135Z,15.65
2023-03-31T20:11:42.488Z,16.20
2023-03-31T20:14:10.779Z,17.52
2023-03-31T20:16:38.259Z,16.02
2023-03-31T20:19:06.648Z,15.82
2023-03-31T20:21:39.014Z,15.23
2023-03-31T20:24:06.845Z,15.43
2023-03-31T20:26:35.114Z,15.85
2023-03-31T20:29:03.804Z,15.98
2023-03-31T20:31:33.799Z,17.90
2023-03-31T20:34:01.017Z,16.02
2023-03-31T20:36:32.208Z,17.50
2023-03-31T20:39:00.891Z,19.45
2023-03-31T20:41:31.201Z,18.00
2023-03-31T20:43:58.975Z,16.52
2023-03-31T20:46:26.329Z,17.27
2023-03-31T20:48:56.082Z,18.48
2023-03-31T20:51:26.479Z,19.73
2023-03-31T20:53:55.244Z,17.33
2023-03-31T20:56:27.885Z,19.08
2023-03-31T20:58:59.134Z,19.23
2023-03-31T21:01:28.443Z,18.23
2023-03-31T21:04:00.701Z,18.40
2023-03-31T21:06:30.015Z,21.30
2023-03-31T21:09:00.149Z,18.02
2023-03-31T21:11:27.750Z,18.90
2023-03-31T21:13:55.109Z,17.27
2023-03-31T21:16:23.107Z,16.15
2023-03-31T21:19:00.512Z,14.82
2023-03-31T21:21:29.062Z,17.77
2023-03-31T21:23:56.200Z,14.13
2023-03-31T21:26:25.006Z,13.90
2023-03-31T21:28:54.520Z,13.38
2023-03-31T21:31:24.202Z,13.07
2023-03-31T21:33:53.630Z,14.00
2023-03-31T21:36:22.940Z,15.07
2023-03-31T21:38:53.006Z,14.82
2023-03-31T21:41:24.534Z,12.02
2023-03-31T21:43:52.173Z,13.77
2023-03-31T21:46:22.790Z,13.48
2023-03-31T21:48:50.703Z,14.05
2023-03-31T21:51:20.085Z,13.13
2023-03-31T21:53:47.353Z,14.27
2023-03-31T21:56:15.257Z,12.70
2023-03-31T21:58:42.436Z,13.88
2023-03-31T22:01:09.515Z,15.05
2023-03-31T22:03:38.554Z,16.58
2023-03-31T22:06:07.355Z,16.10
2023-03-31T22:08:36.656Z,16.42
2023-03-31T22:11:05.401Z,15.05
2023-03-31T22:13:33.237Z,15.52
2023-03-31T22:16:02.126Z,16.85
2023-03-31T22:18:30.639Z,15.55
2023-03-31T22:20:58.466Z,16.05
2023-03-31T22:23:26.188Z,16.00
2023-03-31T22:25:53.184Z,16.80
2023-03-31T22:28:20.257Z,16.02
2023-03-31T22:30:47.442Z,14.02
2023-03-31T22:33:14.506Z,16.65
2023-03-31T22:35:41.563Z,16.15
2023-03-31T22:38:09.081Z,17.27
2023-03-31T22:40:36.567Z,17.90
2023-03-31T22:43:03.924Z,15.35
2023-03-31T22:45:31.559Z,15.27
2023-03-31T22:47:58.842Z,15.15
2023-03-31T22:50:25.982Z,14.82
2023-03-31T22:52:53.183Z,15.43
2023-03-31T22:55:20.206Z,14.85
2023-03-31T22:57:47.409Z,14.00
2023-03-31T23:00:15.017Z,13.43
2023-03-31T23:02:42.383Z,15.23
2023-03-31T23:05:10.553Z,14.73
2023-03-31T23:07:38.699Z,14.88
2023-03-31T23:10:07.099Z,18.27
2023-03-31T23:12:34.120Z,16.80
2023-03-31T23:15:01.122Z,16.40
2023-03-31T23:17:28.147Z,16.65
2023-03-31T23:19:55.574Z,20.25
2023-03-31T23:22:22.710Z,15.80
2023-03-31T23:24:49.796Z,18.08
2023-03-31T23:27:16.949Z,18.92
2023-03-31T23:29:44.568Z,18.85
2023-03-31T23:32:11.857Z,16.67
2023-03-31T23:34:42.340Z,18.40
2023-03-31T23:37:14.044Z,16.73
2023-03-31T23:39:41.947Z,19.52
2023-03-31T23:42:12.662Z,18.67
2023-03-31T23:44:39.829Z,19.50
2023-03-31T23:47:06.893Z,19.70
2023-03-31T23:49:33.981Z,19.85
2023-03-31T23:52:01.025Z,19.35
2023-03-31T23:54:28.619Z,17.83
2023-03-31T23:56:56.176Z,19.95
2023-03-31T23:59:23.361Z,19.25
